createdAt,value
2022-10-24T08:15:45.485Z,4.36
2022-10-24T08:20:45.451Z,4.23
2022-10-24T08:25:45.496Z,3.93
2022-10-24T08:30:45.482Z,3.78
2022-10-24T08:35:45.457Z,3.88
2022-10-24T08:40:45.481Z,3.96
2022-10-24T08:45:45.447Z,4.03
2022-10-24T08:50:45.456Z,3.65
2022-10-24T08:55:49.577Z,3.68
2022-10-24T09:00:45.515Z,3.32
2022-10-24T09:05:45.461Z,3.71
2022-10-24T09:10:45.502Z,3.5
2022-10-24T09:15:45.467Z,3.64
2022-10-24T09:20:45.490Z,3.45
2022-10-24T09:25:45.497Z,3.38
2022-10-24T09:30:45.479Z,3.38
2022-10-24T09:35:45.502Z,3.15
2022-10-24T09:40:45.505Z,3.28
2022-10-24T09:45:45.516Z,3.2
2022-10-24T09:50:45.545Z,3.28
2022-10-24T09:55:45.513Z,2.84
2022-10-24T10:00:45.537Z,3.39
2022-10-24T10:05:45.525Z,3.09
2022-10-24T10:10:45.562Z,3.03
2022-10-24T10:15:45.576Z,3.1
2022-10-24T10:20:45.529Z,2.76
2022-10-24T10:25:45.541Z,2.76
2022-10-24T10:30:45.585Z,2.76
2022-10-24T10:35:45.539Z,3.02
2022-10-24T10:40:45.512Z,2.66
2022-10-24T10:45:45.515Z,2.63
2022-10-24T10:50:45.545Z,2.56
2022-10-24T10:55:45.558Z,2.74
2022-10-24T11:00:45.560Z,2.98
2022-10-24T11:05:45.522Z,2.96
2022-10-24T11:10:45.530Z,3.38
2022-10-24T11:15:45.579Z,3.3
2022-10-24T11:20:45.568Z,3.21
2022-10-24T11:25:45.572Z,3.02
2022-10-24T11:30:45.566Z,2.89
2022-10-24T11:35:45.605Z,3.27
2022-10-24T11:40:45.616Z,3.1
2022-10-24T11:45:45.576Z,3.06
2022-10-24T11:50:45.576Z,2.87
2022-10-24T11:55:45.620Z,3.7
2022-10-24T12:00:45.655Z,3.73
2022-10-24T12:05:45.594Z,3.22
2022-10-24T12:10:45.694Z,3.43
2022-10-24T12:15:45.606Z,3.45
2022-10-24T12:20:45.646Z,4.15
2022-10-24T12:25:47.202Z,4.34
2022-10-24T12:30:45.692Z,4.08
2022-10-24T12:35:45.608Z,3.51
2022-10-24T12:40:45.695Z,3.8
2022-10-24T12:45:45.619Z,3.78
2022-10-24T12:50:45.627Z,3.83
2022-10-24T12:55:45.605Z,3.25
2022-10-24T13:00:45.655Z,3.08
2022-10-24T13:09:57.596Z,3.03
2022-10-24T13:14:57.604Z,2.94
2022-10-24T13:19:57.654Z,3.16
2022-10-24T13:24:57.639Z,3.23
2022-10-24T13:29:57.647Z,3.06
2022-10-24T13:34:57.631Z,3.2
2022-10-24T13:39:57.644Z,3
2022-10-24T13:44:57.617Z,3.21
2022-10-24T13:49:57.659Z,2.81
2022-10-24T13:54:57.679Z,2.81
2022-10-24T13:59:57.667Z,3.54
2022-10-24T14:09:57.692Z,5.98
2022-10-24T14:14:57.636Z,4.18
2022-10-24T14:19:57.665Z,4.58
2022-10-24T14:24:57.682Z,7.55
2022-10-24T14:29:57.671Z,7.14
2022-10-24T14:34:57.674Z,6.6
2022-10-24T14:39:57.643Z,5.31
2022-10-24T14:44:58.551Z,5.25
2022-10-24T14:49:57.651Z,4.43
2022-10-24T14:54:57.657Z,6.77
2022-10-24T14:59:57.657Z,6.77
2022-10-24T15:04:57.664Z,6.39
2022-10-24T15:09:57.734Z,5.48
2022-10-24T15:14:57.734Z,5.34
2022-10-24T15:19:57.729Z,5.09
2022-10-24T15:24:57.699Z,4.78
2022-10-24T15:29:57.736Z,5.13
2022-10-24T15:34:57.745Z,5.83
2022-10-24T15:39:57.733Z,5.31
2022-10-24T15:44:57.742Z,5.55
2022-10-24T15:49:57.746Z,5.3
2022-10-24T15:54:57.732Z,5.56
2022-10-24T15:59:57.721Z,4.29
2022-10-24T16:04:57.713Z,4.27
2022-10-24T16:09:57.721Z,5.31
2022-10-24T16:14:57.731Z,5.68
2022-10-24T16:19:57.698Z,5.4
2022-10-24T16:24:57.701Z,5.31
2022-10-24T16:29:57.736Z,4.86
2022-10-24T16:34:57.734Z,5.59
2022-10-24T16:39:57.712Z,5.33
2022-10-24T16:44:57.749Z,5.09
2022-10-24T16:49:57.758Z,5.55
2022-10-24T16:54:57.723Z,5.3
2022-10-24T16:59:57.801Z,4.49
2022-10-24T17:04:57.714Z,5.57
2022-10-24T17:09:57.728Z,4.8
2022-10-24T17:14:57.774Z,5.66
2022-10-24T17:19:57.881Z,5.93
2022-10-24T17:24:57.737Z,6.05
2022-10-24T17:29:57.752Z,6.28
2022-10-24T17:34:57.728Z,6.7
2022-10-24T17:39:57.737Z,6.38
2022-10-24T17:44:57.733Z,6.18
2022-10-24T17:49:57.737Z,5.61
2022-10-24T17:54:57.776Z,6.46
2022-10-24T17:59:57.748Z,5.98
2022-10-24T18:04:57.782Z,5.73
2022-10-24T18:09:57.784Z,5.67
2022-10-24T18:14:57.795Z,6.03
2022-10-24T18:19:57.838Z,6.32
2022-10-24T18:24:57.792Z,5.5
2022-10-24T18:29:57.798Z,5.69
2022-10-24T18:34:57.803Z,6.04
2022-10-24T18:39:57.796Z,5.97
2022-10-24T18:44:57.807Z,6.04
2022-10-24T18:49:57.812Z,6.47
2022-10-24T18:54:57.829Z,6.99
2022-10-24T18:59:57.842Z,7.53
2022-10-24T19:04:57.808Z,9.01
2022-10-24T19:09:57.805Z,8.39
2022-10-24T19:14:57.835Z,7.73
2022-10-24T19:19:57.831Z,8.91
2022-10-24T19:24:57.832Z,8.6
2022-10-24T19:29:57.810Z,8.75
2022-10-24T19:34:57.851Z,9.85
2022-10-24T19:39:57.815Z,10.38
2022-10-24T19:44:57.833Z,11.02
2022-10-24T19:49:57.829Z,10.08
2022-10-24T19:54:57.853Z,11.72
2022-10-24T19:59:57.860Z,11.59
2022-10-24T20:04:57.867Z,8.08
2022-10-24T20:09:57.869Z,7.86
2022-10-24T20:14:57.859Z,7.25
2022-10-24T20:19:57.877Z,6.78
2022-10-24T20:24:57.845Z,6.22
2022-10-24T20:29:57.836Z,5.93
2022-10-24T20:34:57.831Z,5.84
2022-10-24T20:44:57.850Z,5.77
2022-10-24T20:49:57.879Z,5.46
2022-10-24T20:54:57.887Z,6.09
2022-10-24T20:59:57.852Z,5.73
2022-10-24T21:04:57.859Z,5.47
2022-10-24T21:09:57.879Z,5.58
2022-10-24T21:14:57.826Z,5.43
2022-10-24T21:19:57.872Z,5.02
2022-10-24T21:24:57.852Z,5.48
2022-10-24T21:29:57.850Z,5.26
2022-10-24T21:34:57.849Z,5.12
2022-10-24T21:39:57.840Z,4.86
2022-10-24T21:44:57.847Z,5.28
2022-10-24T21:49:57.848Z,5.08
2022-10-24T21:54:57.883Z,5.05
2022-10-24T21:59:57.891Z,5.1
2022-10-24T22:04:57.878Z,5.02
2022-10-24T22:09:57.854Z,5.98
2022-10-24T22:14:57.900Z,5.7
2022-10-24T22:19:57.899Z,4.58
2022-10-24T22:24:57.889Z,4.76
2022-10-24T22:29:57.911Z,4.7
2022-10-24T22:34:57.919Z,4.38
2022-10-24T22:39:57.912Z,4.51
2022-10-24T22:44:57.939Z,4.92
2022-10-24T22:49:57.909Z,5.95
2022-10-24T22:54:57.921Z,6.46
2022-10-24T22:59:57.933Z,6.33
2022-10-24T23:04:57.933Z,5.38
2022-10-24T23:09:57.910Z,5.45
2022-10-24T23:14:57.915Z,6.77
2022-10-24T23:19:57.895Z,6.47
2022-10-24T23:24:57.884Z,6.35
2022-10-24T23:29:57.894Z,6.15
2022-10-24T23:34:57.904Z,5.3
2022-10-24T23:39:57.935Z,6.35
2022-10-24T23:44:57.936Z,6.3
2022-10-24T23:49:57.913Z,6.13
2022-10-24T23:54:57.928Z,7.8
2022-10-24T23:59:57.948Z,7.07
